Time;durP1;ratioP1;P1;durP2;ratioP2;P2;SDS_P1;SDS_P2;PMS_P1;PMS_P2;Temp;Humidity;BMP_temperature;BMP_pressure;BME280_temperature;BME280_humidity;BME280_pressure;Samples;Min_cycle;Max_cycle;Signal;HPM_P1;HPM_P2
2021/06/10 00:00:48;;;;;;;11.25;9.07;;;;;;;19.90;51.16;101680.50;5058668;28;20037;-81
2021/06/10 00:03:14;;;;;;;12.88;9.10;;;;;;;19.90;51.50;101672.31;5057760;28;20094;-81
2021/06/10 00:05:40;;;;;;;9.65;8.68;;;;;;;19.90;51.53;101666.00;5038146;28;20056;-81
2021/06/10 00:08:07;;;;;;;12.20;8.73;;;;;;;19.88;51.71;101668.03;5055648;28;20036;-80
2021/06/10 00:10:34;;;;;;;9.00;8.05;;;;;;;19.93;51.57;101663.75;5054529;28;20037;-80
2021/06/10 00:12:59;;;;;;;12.65;8.20;;;;;;;19.89;51.68;101665.13;5053599;28;20087;-80
2021/06/10 00:15:29;;;;;;;10.23;8.50;;;;;;;19.93;51.82;101663.75;5035131;28;20033;-80
2021/06/10 00:17:56;;;;;;;10.93;8.60;;;;;;;19.97;51.56;101664.25;5053123;28;20033;-80
2021/06/10 00:20:23;;;;;;;9.90;8.32;;;;;;;20.01;51.66;101660.16;5052627;28;20476;-80
2021/06/10 00:22:48;;;;;;;10.13;8.32;;;;;;;19.96;51.66;101657.09;5034002;28;20033;-81
2021/06/10 00:25:14;;;;;;;9.48;6.80;;;;;;;20.00;51.72;101661.19;5052076;28;20036;-80
2021/06/10 00:27:40;;;;;;;9.57;7.57;;;;;;;20.00;51.80;101661.19;5053540;28;20029;-80
2021/06/10 00:30:12;;;;;;;9.05;8.15;;;;;;;20.00;52.08;101661.19;5040507;28;20021;-81
2021/06/10 00:32:37;;;;;;;10.73;8.48;;;;;;;19.95;51.97;101661.69;5040126;28;20021;-80
2021/06/10 00:35:04;;;;;;;11.07;8.90;;;;;;;20.00;52.02;101655.72;5057148;28;20069;-80
2021/06/10 00:37:29;;;;;;;10.80;8.60;;;;;;;19.98;52.20;101660.50;5055878;28;20507;-80
2021/06/10 00:39:55;;;;;;;13.27;8.70;;;;;;;19.95;52.42;101658.13;5054975;28;20036;-80
2021/06/10 00:42:21;;;;;;;12.32;8.48;;;;;;;19.93;52.67;101658.31;5054072;28;20427;-80
2021/06/10 00:44:47;;;;;;;9.05;8.00;;;;;;;19.93;52.31;101658.31;5053721;28;20068;-80
2021/06/10 00:47:13;;;;;;;11.18;9.35;;;;;;;19.88;52.42;101665.31;5053187;28;20058;-80
2021/06/10 00:49:38;;;;;;;8.75;7.85;;;;;;;19.89;52.79;101664.28;5034105;28;20078;-80
2021/06/10 00:52:04;;;;;;;9.32;7.93;;;;;;;19.84;52.63;101661.25;5052129;28;20029;-80
2021/06/10 00:54:30;;;;;;;10.30;9.25;;;;;;;19.80;52.95;101668.91;5051777;28;20048;-80
2021/06/10 00:56:56;;;;;;;12.27;9.00;;;;;;;19.71;52.91;101665.34;5052407;28;20037;-80
2021/06/10 00:59:21;;;;;;;10.88;8.70;;;;;;;19.74;52.76;101667.75;5059084;28;20100;-81
2021/06/10 01:01:47;;;;;;;10.55;8.43;;;;;;;19.74;53.02;101654.09;5057236;28;20033;-81
2021/06/10 01:04:13;;;;;;;10.48;9.48;;;;;;;19.68;53.22;101662.09;5038064;28;20405;-80
2021/06/10 01:06:53;;;;;;;10.93;9.40;;;;;;;19.73;53.25;101654.25;5055522;28;20554;-81
2021/06/10 01:09:29;;;;;;;11.85;9.90;;;;;;;19.60;53.50;101652.03;5054842;28;20057;-81
2021/06/10 01:12:02;;;;;;;11.90;10.75;;;;;;;19.58;53.66;101648.59;5053629;28;20033;-81
2021/06/10 01:14:42;;;;;;;12.35;11.20;;;;;;;19.68;53.60;101651.19;5034352;28;20060;-81
2021/06/10 01:20:30;;;;;;;;;;;;;;;19.63;54.02;101640.75;5052451;28;20453;-81
2021/06/10 01:22:56;;;;;;;11.02;10.02;;;;;;;19.70;53.50;101644.53;5051212;28;20353;-80
2021/06/10 01:25:24;;;;;;;12.40;10.82;;;;;;;19.68;53.56;101634.81;5032992;28;20033;-80
2021/06/10 01:27:56;;;;;;;11.20;10.02;;;;;;;19.74;53.71;101634.97;5051966;28;20032;-80
2021/06/10 01:30:25;;;;;;;13.13;10.60;;;;;;;19.69;53.41;101639.25;5059052;28;20501;-80
2021/06/10 01:32:54;;;;;;;13.45;10.93;;;;;;;19.64;53.73;101633.44;5056763;28;20033;-80
2021/06/10 01:35:23;;;;;;;11.60;10.40;;;;;;;19.56;54.07;101631.56;5055442;28;20115;-80
2021/06/10 01:37:49;;;;;;;12.05;10.70;;;;;;;19.61;53.99;101634.63;5054746;28;20385;-81
2021/06/10 01:40:18;;;;;;;12.50;10.65;;;;;;;19.54;53.86;101630.88;5052960;28;20118;-80
2021/06/10 01:42:43;;;;;;;11.20;9.43;;;;;;;19.56;53.70;101626.13;5034179;28;20044;-80
2021/06/10 01:45:11;;;;;;;14.80;11.35;;;;;;;19.37;54.33;101621.84;5032927;28;20029;-80
2021/06/10 01:47:38;;;;;;;15.40;12.20;;;;;;;19.31;54.22;101621.69;5051958;28;20033;-80
2021/06/10 01:50:06;;;;;;;13.27;11.48;;;;;;;19.36;54.15;101627.50;5032695;28;20477;-80
2021/06/10 01:52:32;;;;;;;13.77;12.48;;;;;;;19.38;53.75;101628.19;5050735;28;20119;-80
2021/06/10 01:54:59;;;;;;;13.18;10.95;;;;;;;19.44;53.59;101622.03;5057042;28;20033;-80
2021/06/10 01:57:25;;;;;;;22.48;11.27;;;;;;;19.44;53.73;101619.31;5056460;28;20029;-81
2021/06/10 01:59:51;;;;;;;13.73;11.02;;;;;;;19.41;54.28;101614.22;5055514;28;20047;-80
2021/06/10 02:02:19;;;;;;;12.45;11.25;;;;;;;19.42;54.27;101621.34;5054147;28;20025;-81
2021/06/10 02:04:44;;;;;;;13.38;12.10;;;;;;;19.41;53.97;101611.47;5053231;28;20037;-81
2021/06/10 02:07:10;;;;;;;12.32;11.07;;;;;;;19.37;54.16;101610.09;5051198;28;20039;-81
2021/06/10 02:09:36;;;;;;;13.75;12.35;;;;;;;19.29;54.30;101614.56;5051429;28;20044;-80
2021/06/10 02:12:02;;;;;;;13.80;12.30;;;;;;;19.16;54.60;101592.41;5032419;28;20029;-80
2021/06/10 02:14:28;;;;;;;14.52;13.00;;;;;;;19.08;55.22;101597.00;5049771;28;20107;-80
2021/06/10 02:16:55;;;;;;;13.85;11.88;;;;;;;19.00;55.29;101595.13;5049491;28;20059;-80
2021/06/10 02:19:20;;;;;;;12.38;11.07;;;;;;;19.02;55.18;101593.94;5055189;28;20146;-81
2021/06/10 02:21:46;;;;;;;10.18;8.95;;;;;;;19.04;55.32;101601.97;5038076;28;20137;-81
2021/06/10 02:24:13;;;;;;;10.10;9.13;;;;;;;18.99;55.50;101596.16;5036170;28;20129;-81
2021/06/10 02:26:39;;;;;;;13.00;11.13;;;;;;;18.86;55.82;101596.66;5053943;28;20108;-81
2021/06/10 02:29:05;;;;;;;11.10;9.32;;;;;;;18.92;55.57;101595.13;5034615;28;20033;-81
2021/06/10 02:31:31;;;;;;;12.80;11.32;;;;;;;18.86;55.75;101590.38;5033402;28;20029;-81
2021/06/10 02:33:57;;;;;;;12.95;11.55;;;;;;;18.79;55.80;101593.75;5033381;28;20037;-80
2021/06/10 02:36:23;;;;;;;13.40;11.98;;;;;;;18.84;55.65;101587.78;5051560;28;20036;-81
2021/06/10 02:38:54;;;;;;;11.73;10.52;;;;;;;18.77;55.98;101592.22;5050868;28;20029;-81
2021/06/10 02:41:23;;;;;;;10.55;9.40;;;;;;;18.79;55.80;101593.75;5032091;28;20060;-80
2021/06/10 02:43:50;;;;;;;13.02;11.73;;;;;;;18.69;55.93;101586.72;5049920;28;20087;-81
2021/06/10 02:46:16;;;;;;;15.10;12.93;;;;;;;18.72;55.65;101587.22;5049760;28;20485;-81
2021/06/10 02:48:43;;;;;;;15.52;12.13;;;;;;;18.65;56.08;101583.50;5031278;28;20405;-81
2021/06/10 02:51:11;;;;;;;18.52;12.27;;;;;;;18.71;55.80;101577.38;5050971;28;20154;-81
2021/06/10 02:53:38;;;;;;;13.27;11.32;;;;;;;18.69;55.96;101576.66;5038989;28;20035;-81
2021/06/10 02:56:05;;;;;;;15.32;10.90;;;;;;;18.64;56.22;101584.53;5056131;28;20037;-81
2021/06/10 02:58:32;;;;;;;10.48;9.48;;;;;;;18.65;56.07;101575.31;5054439;28;20033;-81
2021/06/10 03:00:59;;;;;;;12.77;11.48;;;;;;;18.63;56.15;101576.50;5053520;28;20360;-81
2021/06/10 03:03:25;;;;;;;15.48;9.63;;;;;;;18.62;56.08;101575.66;5052404;28;20037;-81
2021/06/10 03:05:51;;;;;;;13.80;11.52;;;;;;;18.51;56.30;101582.25;5051515;28;20029;-81
2021/06/10 03:08:19;;;;;;;16.80;12.52;;;;;;;18.45;56.60;101573.91;5032337;28;20035;-80
2021/06/10 03:10:46;;;;;;;16.75;11.32;;;;;;;18.36;56.79;101581.19;5050108;28;20036;-80
2021/06/10 03:13:14;;;;;;;11.38;10.10;;;;;;;18.46;56.49;101568.31;5031096;28;20040;-81
2021/06/10 03:15:40;;;;;;;17.45;10.75;;;;;;;18.48;56.43;101568.13;5050022;28;20025;-81
2021/06/10 03:18:06;;;;;;;11.93;10.73;;;;;;;18.47;56.70;101572.72;5048975;28;20033;-81
2021/06/10 03:20:31;;;;;;;13.82;12.48;;;;;;;18.47;56.67;101563.72;5033595;28;20378;-81
2021/06/10 03:22:57;;;;;;;17.65;12.23;;;;;;;18.47;56.60;101569.16;5055031;28;20032;-81
2021/06/10 03:25:23;;;;;;;12.63;11.35;;;;;;;18.52;56.51;101561.34;5036090;28;20033;-81
2021/06/10 03:27:50;;;;;;;13.35;12.00;;;;;;;18.49;56.91;101561.69;5053337;28;20029;-80
2021/06/10 03:30:16;;;;;;;13.98;12.65;;;;;;;18.47;57.19;101563.72;5055610;28;20523;-80
2021/06/10 03:32:42;;;;;;;14.18;12.55;;;;;;;18.48;57.09;101562.69;5055646;28;20033;-80
2021/06/10 03:35:08;;;;;;;14.55;12.43;;;;;;;18.48;57.32;101555.34;5055035;28;20116;-80
2021/06/10 03:37:35;;;;;;;15.10;12.65;;;;;;;18.52;57.04;101558.63;5053777;28;20025;-81
2021/06/10 03:40:02;;;;;;;14.23;11.40;;;;;;;18.55;57.08;101552.84;5054007;28;20055;-80
2021/06/10 03:42:29;;;;;;;13.98;12.57;;;;;;;18.60;56.79;101554.00;5053043;28;20032;-80
2021/06/10 03:44:55;;;;;;;13.93;12.48;;;;;;;18.58;56.96;101544.31;5035064;28;20043;-81
2021/06/10 03:47:21;;;;;;;15.75;11.55;;;;;;;18.65;57.00;101548.06;5052824;28;20389;-80
2021/06/10 03:49:47;;;;;;;14.77;12.20;;;;;;;18.63;57.11;101546.53;5040298;28;20028;-81
2021/06/10 03:52:12;;;;;;;17.15;12.15;;;;;;;18.66;57.09;101552.50;5040058;28;20024;-80
2021/06/10 03:54:37;;;;;;;15.55;13.82;;;;;;;18.64;57.01;101549.09;5056643;28;20504;-80
2021/06/10 03:57:03;;;;;;;15.15;13.55;;;;;;;18.60;57.52;101550.44;5037893;28;20551;-80
2021/06/10 03:59:28;;;;;;;14.05;12.65;;;;;;;18.71;57.24;101543.81;5035834;28;20507;-80
2021/06/10 04:01:54;;;;;;;14.27;12.77;;;;;;;18.76;57.01;101545.06;5035202;28;20036;-80
2021/06/10 04:04:19;;;;;;;20.05;13.63;;;;;;;18.74;57.01;101549.81;5034492;28;20086;-80
2021/06/10 04:06:46;;;;;;;19.08;15.50;;;;;;;18.67;57.13;101546.03;5052291;28;20029;-80
2021/06/10 04:09:12;;;;;;;13.98;12.43;;;;;;;18.77;57.27;101543.19;5036318;28;20028;-81
2021/06/10 04:11:39;;;;;;;17.20;15.30;;;;;;;18.82;57.03;101546.22;5059793;28;20040;-81
2021/06/10 04:14:05;;;;;;;17.48;15.57;;;;;;;18.78;57.58;101548.44;5039526;28;20075;-80
2021/06/10 04:16:31;;;;;;;15.43;13.80;;;;;;;18.87;57.09;101540.28;5037809;28;20028;-80
2021/06/10 04:18:57;;;;;;;18.73;16.73;;;;;;;18.82;57.47;101547.09;5054311;28;20412;-80
2021/06/10 04:21:23;;;;;;;17.58;15.77;;;;;;;18.89;57.40;101544.53;5053915;28;20024;-80
2021/06/10 04:23:49;;;;;;;22.77;16.40;;;;;;;18.93;57.11;101539.59;5035052;28;20071;-80
2021/06/10 04:26:16;;;;;;;15.98;14.27;;;;;;;19.02;56.87;101542.13;5034872;28;20033;-81
2021/06/10 04:28:45;;;;;;;19.48;16.73;;;;;;;19.01;57.02;101539.59;5052209;28;20090;-81
2021/06/10 04:31:20;;;;;;;17.17;15.30;;;;;;;19.09;57.00;101542.28;5033941;28;20029;-80
2021/06/10 04:33:46;;;;;;;17.92;15.98;;;;;;;19.10;56.94;101548.59;5036334;28;20021;-81
2021/06/10 04:36:11;;;;;;;17.63;15.15;;;;;;;19.08;57.24;101537.88;5041910;28;20060;-80
2021/06/10 04:38:37;;;;;;;18.63;16.17;;;;;;;19.17;57.03;101550.47;5058074;28;20041;-81
2021/06/10 04:41:03;;;;;;;17.58;15.73;;;;;;;19.18;57.10;101551.31;5037567;28;20029;-81
2021/06/10 04:43:28;;;;;;;15.60;13.50;;;;;;;19.25;56.74;101552.31;5037436;28;20385;-81
2021/06/10 04:45:56;;;;;;;15.98;14.15;;;;;;;19.26;56.52;101552.16;5053783;28;20071;-81
2021/06/10 04:48:21;;;;;;;14.10;12.60;;;;;;;19.35;56.81;101557.63;5034852;28;20112;-81
2021/06/10 04:50:46;;;;;;;18.52;12.98;;;;;;;19.43;56.24;101561.16;5052157;28;20529;-80
2021/06/10 04:53:13;;;;;;;15.77;12.48;;;;;;;19.54;55.62;101557.22;5052253;28;20107;-80
2021/06/10 04:55:39;;;;;;;15.10;12.02;;;;;;;19.59;54.71;101556.69;5033888;28;20112;-80
2021/06/10 04:58:05;;;;;;;13.25;11.65;;;;;;;19.62;54.98;101559.94;5033571;28;20040;-80
2021/06/10 05:00:30;;;;;;;12.65;11.43;;;;;;;19.64;53.44;101563.34;5033719;28;20029;-80
2021/06/10 05:02:56;;;;;;;13.32;10.35;;;;;;;19.76;54.04;101563.00;5051031;28;20039;-80
2021/06/10 05:05:21;;;;;;;12.63;10.10;;;;;;;19.76;53.76;101568.44;5057688;28;20085;-81
2021/06/10 05:07:47;;;;;;;11.32;10.30;;;;;;;19.81;53.63;101571.50;5058108;28;20048;-80
2021/06/10 05:10:12;;;;;;;13.70;9.40;;;;;;;19.79;53.22;101565.34;5056609;28;20489;-80
2021/06/10 05:12:38;;;;;;;11.25;8.50;;;;;;;19.85;53.35;101581.03;5036042;28;20035;-80
2021/06/10 05:15:05;;;;;;;12.02;8.60;;;;;;;19.94;52.74;101574.50;5052945;28;20029;-80
2021/06/10 05:17:31;;;;;;;10.13;9.13;;;;;;;19.93;52.34;101576.41;5052342;28;20060;-80
2021/06/10 05:19:57;;;;;;;9.40;8.50;;;;;;;19.92;51.43;101579.28;5034068;28;20051;-80
2021/06/10 05:22:23;;;;;;;10.55;8.77;;;;;;;19.88;50.73;101587.00;5052110;28;20044;-80
2021/06/10 05:24:48;;;;;;;10.38;8.15;;;;;;;20.01;50.08;101580.97;5051893;28;20075;-80
2021/06/10 05:27:14;;;;;;;10.13;8.15;;;;;;;20.03;49.95;101578.91;5033555;28;20032;-80
2021/06/10 05:29:39;;;;;;;9.70;7.72;;;;;;;20.12;49.35;101582.47;5051418;28;20025;-79
2021/06/10 05:32:06;;;;;;;12.35;9.13;;;;;;;20.17;49.73;101578.16;5039889;28;20033;-80
2021/06/10 05:34:32;;;;;;;12.05;9.43;;;;;;;20.17;51.19;101582.75;5058377;28;20028;-81
2021/06/10 05:36:57;;;;;;;11.07;7.95;;;;;;;20.36;50.98;101589.69;5037559;28;20025;-79
2021/06/10 05:39:22;;;;;;;10.30;8.15;;;;;;;20.43;50.75;101598.84;5051358;28;20111;-78
2021/06/10 05:41:48;;;;;;;10.90;8.73;;;;;;;20.40;49.88;101589.13;5046804;28;20123;-76
2021/06/10 05:44:13;;;;;;;11.82;8.13;;;;;;;20.37;50.81;101591.38;5049560;28;20456;-76
2021/06/10 05:46:39;;;;;;;10.85;7.82;;;;;;;20.49;50.52;101589.94;5033577;28;20036;-75
2021/06/10 05:49:05;;;;;;;13.02;7.95;;;;;;;20.42;49.16;101598.00;5039668;28;20036;-75
2021/06/10 05:51:30;;;;;;;7.75;6.95;;;;;;;20.45;49.58;101594.06;5044256;28;20029;-76
2021/06/10 05:53:55;;;;;;;8.48;7.40;;;;;;;20.46;50.80;101609.44;5024557;28;20065;-76
2021/06/10 05:56:21;;;;;;;10.20;7.13;;;;;;;20.55;49.64;101596.59;5044492;28;20590;-76
2021/06/10 05:58:46;;;;;;;8.10;7.20;;;;;;;20.46;49.54;101606.69;5045196;28;20518;-76
2021/06/10 06:01:11;;;;;;;10.60;7.13;;;;;;;20.62;49.82;101612.09;5045058;28;20054;-76
2021/06/10 06:03:39;;;;;;;10.50;7.20;;;;;;;20.50;49.16;101616.22;5045223;28;20548;-77
2021/06/10 06:06:04;;;;;;;6.95;6.22;;;;;;;20.61;49.30;101604.91;5045377;28;20373;-76
2021/06/10 06:08:31;;;;;;;6.95;6.20;;;;;;;20.55;49.01;101615.72;5026799;28;20043;-77
2021/06/10 06:10:56;;;;;;;7.07;5.28;;;;;;;20.64;48.86;101620.97;5045390;28;20039;-77
2021/06/10 06:13:24;;;;;;;7.93;5.75;;;;;;;20.63;48.51;101621.13;5045366;28;20536;-77
2021/06/10 06:15:57;;;;;;;9.80;5.20;;;;;;;20.62;49.23;101623.00;5027961;28;20722;-77
2021/06/10 06:18:22;;;;;;;8.50;5.05;;;;;;;20.70;49.13;101619.38;5031214;28;20646;-77
2021/06/10 06:20:47;;;;;;;6.78;4.75;;;;;;;20.81;49.03;101616.22;5045262;28;20135;-77
2021/06/10 06:23:14;;;;;;;5.95;4.97;;;;;;;20.88;48.21;101617.22;5045096;28;20033;-77
2021/06/10 06:25:40;;;;;;;5.93;4.82;;;;;;;20.88;48.65;101614.47;5044661;28;20029;-77
2021/06/10 06:28:05;;;;;;;7.75;4.32;;;;;;;20.92;49.04;101625.06;5044806;28;20379;-76
2021/06/10 06:30:30;;;;;;;5.88;4.95;;;;;;;20.92;48.82;101616.84;5045448;28;20025;-77
2021/06/10 06:32:56;;;;;;;7.10;4.13;;;;;;;20.96;48.00;101619.03;5044577;28;20036;-77
2021/06/10 06:35:21;;;;;;;6.22;4.63;;;;;;;20.94;47.55;101615.63;5043373;28;20032;-76
2021/06/10 06:37:49;;;;;;;7.82;4.82;;;;;;;21.02;47.58;101615.56;5026741;28;20031;-76
2021/06/10 06:40:15;;;;;;;8.65;4.57;;;;;;;21.03;47.14;101619.16;5024719;28;20029;-76
2021/06/10 06:42:40;;;;;;;5.50;3.88;;;;;;;21.04;47.45;101616.22;5021494;28;20098;-76
2021/06/10 06:45:06;;;;;;;4.88;3.92;;;;;;;21.01;47.80;101623.97;5034245;28;20125;-79
2021/06/10 06:47:32;;;;;;;7.00;4.47;;;;;;;21.15;47.49;101616.81;5024623;28;20022;-79
2021/06/10 06:49:58;;;;;;;6.15;4.05;;;;;;;21.15;46.63;101625.03;5042871;28;20025;-79
2021/06/10 06:52:23;;;;;;;6.88;5.85;;;;;;;21.06;46.83;101630.59;5046140;28;20029;-79
2021/06/10 06:54:48;;;;;;;10.10;5.18;;;;;;;21.09;46.90;101624.75;5045742;28;20028;-79
2021/06/10 06:57:14;;;;;;;6.95;5.70;;;;;;;21.12;46.90;101626.28;5045597;28;20439;-78
2021/06/10 06:59:39;;;;;;;8.57;6.25;;;;;;;21.13;46.81;101627.13;5026957;28;20031;-79
2021/06/10 07:02:05;;;;;;;6.15;5.43;;;;;;;21.17;47.14;101640.22;5027183;28;20036;-79
2021/06/10 07:04:30;;;;;;;6.45;4.47;;;;;;;21.32;47.65;101640.28;5026544;28;20032;-79
2021/06/10 07:06:56;;;;;;;9.65;7.05;;;;;;;21.22;46.41;101639.69;5043912;28;20025;-79
2021/06/10 07:09:21;;;;;;;10.45;7.82;;;;;;;21.21;46.21;101638.84;5046372;28;20036;-78
2021/06/10 07:11:46;;;;;;;8.82;7.60;;;;;;;21.25;47.12;101637.44;5046395;28;20040;-79
2021/06/10 07:14:12;;;;;;;10.38;9.15;;;;;;;21.14;46.95;101637.84;5046599;28;20021;-78
2021/06/10 07:16:37;;;;;;;10.45;8.00;;;;;;;21.18;47.20;101641.06;5045791;28;20439;-78
2021/06/10 07:19:02;;;;;;;8.70;7.68;;;;;;;21.37;47.26;101647.97;5049026;28;20037;-79
2021/06/10 07:21:49;;;;;;;9.95;7.47;;;;;;;21.46;47.65;101642.25;5053653;28;20024;-80
2021/06/10 07:24:14;;;;;;;9.32;8.13;;;;;;;21.41;47.27;101638.34;5054743;28;20039;-80
2021/06/10 07:26:40;;;;;;;10.68;7.97;;;;;;;21.56;47.77;101652.91;5036575;28;20408;-79
2021/06/10 07:29:06;;;;;;;9.85;8.20;;;;;;;21.68;46.94;101642.38;5038248;28;20119;-79
2021/06/10 07:31:32;;;;;;;8.15;7.35;;;;;;;21.68;47.23;101640.47;5036410;28;20029;-79
2021/06/10 07:33:57;;;;;;;10.23;8.98;;;;;;;21.71;46.63;101642.00;5021369;28;20037;-80
2021/06/10 07:36:24;;;;;;;10.98;8.80;;;;;;;21.76;47.05;101637.66;5055123;28;20753;-80
2021/06/10 07:38:50;;;;;;;10.55;8.23;;;;;;;21.80;47.34;101635.41;5055658;28;20025;-80
2021/06/10 07:41:16;;;;;;;13.05;9.50;;;;;;;21.74;46.87;101645.22;5055156;28;20294;-80
2021/06/10 07:43:41;;;;;;;14.07;9.43;;;;;;;21.77;46.92;101633.03;5036409;28;20040;-80
2021/06/10 07:46:09;;;;;;;10.43;9.05;;;;;;;21.91;47.08;101640.38;5037806;28;20039;-81
2021/06/10 07:48:35;;;;;;;12.00;9.13;;;;;;;21.87;47.12;101638.22;5056311;28;20021;-80
2021/06/10 07:51:04;;;;;;;17.45;9.75;;;;;;;21.91;46.88;101640.38;5054128;28;20040;-80
2021/06/10 07:53:29;;;;;;;14.15;11.75;;;;;;;21.79;47.05;101628.19;5033788;28;20025;-80
2021/06/10 07:55:55;;;;;;;12.15;10.85;;;;;;;21.87;46.96;101641.81;5053402;28;20044;-79
2021/06/10 07:58:22;;;;;;;13.70;10.75;;;;;;;21.89;46.62;101628.78;5035259;28;20032;-80
2021/06/10 08:00:48;;;;;;;12.95;9.43;;;;;;;21.99;47.30;101632.09;5033693;28;20025;-79
2021/06/10 08:03:13;;;;;;;11.45;10.15;;;;;;;21.92;47.40;101635.78;5048758;28;20072;-79
2021/06/10 08:05:38;;;;;;;12.65;11.23;;;;;;;21.95;47.34;101638.16;5048628;28;20032;-80
2021/06/10 08:08:04;;;;;;;13.23;11.77;;;;;;;21.63;47.09;101631.13;5050410;28;20037;-80
2021/06/10 08:10:29;;;;;;;16.23;10.48;;;;;;;21.75;47.24;101632.34;5051597;28;20025;-80
2021/06/10 08:12:55;;;;;;;12.65;10.32;;;;;;;21.74;47.54;101634.25;5025603;28;20030;-80
2021/06/10 08:15:20;;;;;;;10.95;9.85;;;;;;;21.69;48.13;101639.44;5041203;28;20036;-80
2021/06/10 08:17:46;;;;;;;25.98;11.55;;;;;;;21.59;47.13;101648.97;5029469;28;20472;-80
2021/06/10 08:20:13;;;;;;;13.40;11.25;;;;;;;21.68;47.75;101637.75;5047979;28;20032;-80
2021/06/10 08:22:39;;;;;;;12.65;11.27;;;;;;;21.65;48.16;101634.53;5050974;28;20099;-80
2021/06/10 08:25:06;;;;;;;13.35;12.05;;;;;;;21.53;47.23;101631.41;5028998;28;20057;-79
2021/06/10 08:27:31;;;;;;;15.30;11.90;;;;;;;21.55;47.79;101630.19;5043000;28;20511;-79
2021/06/10 08:29:56;;;;;;;18.55;12.35;;;;;;;21.55;48.02;101632.06;5027846;28;20525;-80
2021/06/10 08:32:22;;;;;;;16.50;12.10;;;;;;;21.63;47.72;101628.38;5048234;28;20025;-79
2021/06/10 08:34:47;;;;;;;15.88;12.00;;;;;;;21.56;48.18;101634.59;5027970;28;20018;-80
2021/06/10 08:37:12;;;;;;;17.75;11.75;;;;;;;21.59;48.07;101629.81;5039116;28;20405;-79
2021/06/10 08:39:38;;;;;;;14.50;10.95;;;;;;;21.62;48.06;101627.53;5049775;28;20037;-79
2021/06/10 08:42:03;;;;;;;14.73;11.90;;;;;;;21.61;47.79;101633.19;5049845;28;20028;-79
2021/06/10 08:44:32;;;;;;;13.50;11.35;;;;;;;21.57;49.32;101638.19;5049039;28;20132;-80
2021/06/10 08:46:59;;;;;;;15.90;11.95;;;;;;;21.51;48.19;101636.19;5049429;28;20530;-79
2021/06/10 08:49:25;;;;;;;12.20;10.98;;;;;;;21.53;48.13;101643.19;5030584;28;20032;-79
2021/06/10 08:51:51;;;;;;;13.30;11.55;;;;;;;21.48;47.07;101634.69;5048297;28;20465;-79
2021/06/10 08:54:16;;;;;;;16.83;11.93;;;;;;;21.53;46.80;101634.13;5029539;28;20045;-79
2021/06/10 08:56:43;;;;;;;14.20;10.80;;;;;;;21.44;47.60;101638.81;5054630;28;20024;-80
2021/06/10 08:59:11;;;;;;;15.02;10.60;;;;;;;21.60;47.91;101631.50;5053634;28;20396;-80
2021/06/10 09:01:37;;;;;;;12.13;10.65;;;;;;;21.64;47.41;101627.34;5051767;28;20033;-80
2021/06/10 09:04:04;;;;;;;12.73;10.57;;;;;;;21.69;46.47;101633.09;5053419;28;20025;-80
2021/06/10 09:06:44;;;;;;;11.18;9.98;;;;;;;21.70;46.56;101635.69;5053987;28;20529;-80
2021/06/10 09:09:10;;;;;;;9.37;8.20;;;;;;;21.74;46.23;101639.72;5052024;28;20096;-80
2021/06/10 09:11:38;;;;;;;10.35;8.88;;;;;;;21.80;45.62;101627.19;5047793;28;20025;-79
2021/06/10 09:14:08;;;;;;;10.30;8.35;;;;;;;21.80;45.70;101629.91;5031732;28;20028;-79
2021/06/10 09:16:36;;;;;;;10.43;9.07;;;;;;;21.93;45.73;101630.09;5025539;28;20029;-79
2021/06/10 09:19:06;;;;;;;5.32;4.82;;;;;;;21.95;43.40;101632.66;5020970;28;20184;-80
2021/06/10 09:21:45;;;;;;;5.22;4.25;;;;;;;22.04;42.35;101631.53;5045891;28;20084;-79
2021/06/10 09:24:30;;;;;;;8.77;4.93;;;;;;;22.08;43.53;101634.72;5047670;28;20029;-79
2021/06/10 09:27:04;;;;;;;5.45;4.10;;;;;;;22.14;42.12;101633.97;5046525;28;20033;-79
2021/06/10 09:29:40;;;;;;;4.93;4.40;;;;;;;22.20;42.41;101630.50;5048284;28;20025;-80
2021/06/10 09:32:12;;;;;;;6.43;5.80;;;;;;;22.12;42.26;101630.56;5029234;28;20147;-80
2021/06/10 09:34:47;;;;;;;9.00;5.32;;;;;;;22.22;43.48;101631.16;5030499;28;20048;-80
2021/06/10 09:37:14;;;;;;;8.43;5.65;;;;;;;22.17;41.99;101630.88;5053649;28;20029;-80
2021/06/10 09:39:51;;;;;;;5.78;5.00;;;;;;;22.11;43.33;101635.19;5055242;28;20021;-80
2021/06/10 09:42:25;;;;;;;7.00;5.50;;;;;;;22.25;43.49;101636.25;5054276;28;20028;-79
2021/06/10 09:45:09;;;;;;;6.88;5.72;;;;;;;22.22;43.32;101642.09;5053302;28;20052;-80
2021/06/10 09:47:47;;;;;;;6.60;4.65;;;;;;;22.24;42.53;101640.03;5055206;28;20129;-80
2021/06/10 09:50:42;;;;;;;8.23;3.67;;;;;;;22.30;41.13;101620.09;5051268;28;20155;-80
2021/06/10 09:53:23;;;;;;;7.68;3.42;;;;;;;22.36;43.02;101619.31;5053427;28;20075;-80
2021/06/10 09:55:56;;;;;;;6.97;4.45;;;;;;;22.41;43.69;101621.50;5049547;28;20036;-80
2021/06/10 09:58:34;;;;;;;7.75;4.90;;;;;;;22.43;44.07;101622.13;5032664;28;20044;-80
2021/06/10 10:01:05;;;;;;;6.68;4.95;;;;;;;22.31;44.77;101624.50;5051631;28;20044;-80
2021/06/10 10:03:40;;;;;;;7.18;4.90;;;;;;;22.47;44.38;101620.72;5052194;28;20381;-80
2021/06/10 10:06:13;;;;;;;5.70;4.30;;;;;;;22.49;45.07;101621.38;5049274;28;20036;-80
2021/06/10 10:08:39;;;;;;;10.43;4.90;;;;;;;22.43;44.98;101613.91;5030416;28;20036;-80
2021/06/10 10:11:07;;;;;;;7.32;5.47;;;;;;;22.44;44.83;101635.66;5048178;28;20044;-80
2021/06/10 10:13:33;;;;;;;7.53;6.55;;;;;;;22.38;45.62;101627.38;5048514;28;20084;-79
2021/06/10 10:16:00;;;;;;;6.85;5.55;;;;;;;22.37;44.58;101622.91;5047724;28;20337;-80
2021/06/10 10:18:26;;;;;;;7.40;4.90;;;;;;;22.46;44.67;101624.50;5048539;28;20025;-80
2021/06/10 10:20:52;;;;;;;6.70;4.07;;;;;;;22.54;45.50;101626.28;5048312;28;20036;-80
2021/06/10 10:23:17;;;;;;;7.60;5.55;;;;;;;22.49;45.36;101629.59;5047509;28;20044;-80
2021/06/10 10:25:43;;;;;;;10.45;7.47;;;;;;;22.56;45.44;101637.88;5029197;28;20029;-80
2021/06/10 10:28:10;;;;;;;10.93;6.40;;;;;;;22.64;45.89;101629.56;5047654;28;20032;-80
2021/06/10 10:30:43;;;;;;;8.02;6.18;;;;;;;22.69;45.50;101632.56;5040406;28;20115;-80
2021/06/10 10:33:17;;;;;;;7.65;6.10;;;;;;;22.80;45.93;101629.31;5046971;28;20474;-79
2021/06/10 10:36:00;;;;;;;8.98;6.32;;;;;;;22.83;46.44;101634.41;5047871;28;20039;-80
2021/06/10 10:38:30;;;;;;;10.23;7.28;;;;;;;22.90;46.41;101629.84;5043305;28;20510;-80
2021/06/10 10:41:00;;;;;;;13.07;6.93;;;;;;;22.93;46.42;101615.75;5035242;28;20078;-74
2021/06/10 10:43:27;;;;;;;8.63;7.13;;;;;;;22.92;46.56;101619.50;5044090;28;20032;-73
2021/06/10 10:46:20;;;;;;;9.20;6.85;;;;;;;22.88;46.62;101626.44;5043440;28;20112;-73
2021/06/10 10:48:50;;;;;;;10.05;8.18;;;;;;;22.89;46.33;101617.16;5042607;28;20120;-73
2021/06/10 10:51:36;;;;;;;8.57;7.15;;;;;;;23.03;45.97;101618.19;5044718;28;20029;-73
2021/06/10 10:54:24;;;;;;;10.43;8.18;;;;;;;23.07;46.54;101618.63;5044881;28;20040;-74
2021/06/10 10:56:49;;;;;;;10.68;8.45;;;;;;;23.19;44.92;101614.31;5026361;28;20390;-73
2021/06/10 10:59:17;;;;;;;8.98;7.90;;;;;;;23.36;46.27;101617.63;5027092;28;20489;-73
2021/06/10 11:02:09;;;;;;;11.20;7.60;;;;;;;23.36;45.85;101618.47;5024103;28;20029;-74
2021/06/10 11:05:05;;;;;;;13.40;10.10;;;;;;;23.44;44.85;101620.22;5024880;28;20252;-80
2021/06/10 11:07:33;;;;;;;14.57;10.75;;;;;;;23.49;44.90;101617.72;5007155;28;20083;-80
2021/06/10 11:09:59;;;;;;;14.18;10.05;;;;;;;23.73;44.83;101615.59;5038374;28;20388;-79
2021/06/10 11:12:40;;;;;;;11.75;10.50;;;;;;;23.63;44.32;101630.50;5043903;28;20028;-80
2021/06/10 11:15:08;;;;;;;11.93;9.23;;;;;;;23.71;44.16;101618.53;5041938;28;20040;-79
2021/06/10 11:17:44;;;;;;;11.13;9.38;;;;;;;23.64;43.97;101617.63;5028448;28;20417;-79
2021/06/10 11:20:13;;;;;;;11.40;9.18;;;;;;;23.74;45.09;101622.78;5044839;28;20029;-80
2021/06/10 11:22:43;;;;;;;11.15;9.65;;;;;;;24.04;44.16;101618.75;5025971;28;20119;-80